Indian Springs, Nevada
Current Conditions -  °F | °C
As of 4:58 PM on Saturday 22 Nov 2014 (Local Time) from KINS Reporting Station
Clear Clear  
Wind Chill: 57°   Ceiling: Unl
Heat Index: 57°   Visibility: 10mi
Dew Point: 25°   Wind: 8mph
Humidity: 29%   Direction: 120°ESE
Pressure: 29.87"   Gusts: NA
Location:  36.57°N, 115.67°W
Report Text: KINS 230058Z AUTO 12007KT 10SM CLR 14/M04 A2987 RMK AO2 SLP102 T01401040
Loading
Personal Weather Stations






























Interactive Weather Map New forecast layout! Learn more

10-Day Weather Forecast

Advertisements
Track Severe Weather on mobile